Time;durP1;ratioP1;P1;durP2;ratioP2;P2;SDS_P1;SDS_P2;PMS_P1;PMS_P2;Temp;Humidity;BMP_temperature;BMP_pressure;BME280_temperature;BME280_humidity;BME280_pressure;Samples;Min_cycle;Max_cycle;Signal;HPM_P1;HPM_P2
2023/01/10 00:02:09;;;;;;;;;0.50;0.50;;;;;6.92;69.75;101252.84;5097910;27;45274;-62
2023/01/10 00:04:34;;;;;;;;;8.75;3.50;;;;;6.92;69.64;101260.78;5091706;27;45393;-61
2023/01/10 00:07:00;;;;;;;;;2.50;2.00;;;;;6.85;70.14;101260.09;5097115;27;45455;-63
2023/01/10 00:09:25;;;;;;;;;1.75;1.75;;;;;6.84;69.92;101258.38;5097926;27;45320;-62
2023/01/10 00:14:35;;;;;;;;;3.75;1.75;;;;;6.81;69.81;101250.53;5096976;27;45433;-61
2023/01/10 00:17:01;;;;;;;;;1.00;1.00;;;;;6.86;69.65;101268.88;5098432;27;45398;-61
2023/01/10 00:19:27;;;;;;;;;3.50;1.00;;;;;6.82;69.75;101276.06;5115165;27;45533;-62
2023/01/10 00:21:56;;;;;;;;;2.00;1.00;;;;;6.82;70.06;101277.84;5100440;27;45339;-61
2023/01/10 00:24:22;;;;;;;;;1.00;1.00;;;;;6.84;69.96;101279.50;5077598;27;45291;-62
2023/01/10 00:26:50;;;;;;;;;5.50;2.00;;;;;6.83;70.00;101280.44;5095203;27;45650;-60
2023/01/10 00:29:28;;;;;;;;;3.00;3.00;;;;;6.83;69.69;101296.28;5097154;27;45583;-60
2023/01/10 00:31:54;;;;;;;;;5.25;2.00;;;;;6.76;69.76;101290.31;5098193;27;45347;-62
2023/01/10 00:34:20;;;;;;;;;3.00;3.00;;;;;6.66;69.89;101270.34;5114494;27;45275;-61
2023/01/10 00:36:48;;;;;;;;;1.50;0.75;;;;;6.84;69.94;101305.09;5098266;27;45587;-60
2023/01/10 00:39:16;;;;;;;;;1.25;0.75;;;;;6.84;69.83;101305.09;5097189;27;46031;-62
2023/01/10 00:44:26;;;;;;;;;2.00;2.00;;;;;6.77;69.44;101309.69;5097200;27;46061;-62
2023/01/10 00:46:52;;;;;;;;;1.00;1.00;;;;;6.75;69.95;101306.22;5115009;27;45832;-60
2023/01/10 00:49:18;;;;;;;;;3.00;1.50;;;;;6.76;70.11;101314.09;5098213;27;45268;-61
2023/01/10 00:51:44;;;;;;;;;3.00;1.00;;;;;6.74;70.14;101315.06;5098504;27;45321;-62
2023/01/10 00:54:10;;;;;;;;;6.00;1.00;;;;;6.70;70.43;101314.28;5098861;27;45378;-60
2023/01/10 00:56:35;;;;;;;;;1.00;1.00;;;;;6.67;70.57;101309.09;5088398;27;45540;-60
2023/01/10 00:59:01;;;;;;;;;3.50;2.00;;;;;6.71;69.93;101321.31;5076564;27;46317;-62
2023/01/10 01:01:26;;;;;;;;;4.00;1.75;;;;;6.66;70.60;101325.00;5080945;27;45315;-61
2023/01/10 01:03:51;;;;;;;;;7.75;2.00;;;;;6.69;70.34;101332.84;5097989;27;45302;-62
2023/01/10 01:06:17;;;;;;;;;7.00;4.00;;;;;6.63;70.39;101322.41;5096838;27;45585;-62
2023/01/10 01:08:43;;;;;;;;;2.00;2.00;;;;;6.69;70.81;101336.34;5096040;27;47045;-62
2023/01/10 01:11:08;;;;;;;;;7.00;4.00;;;;;6.68;70.54;101336.38;5078902;27;45320;-61
2023/01/10 01:13:35;;;;;;;;;4.50;1.00;;;;;6.66;70.84;101333.78;5095256;27;45326;-62
2023/01/10 01:16:00;;;;;;;;;0.75;0.75;;;;;6.67;70.43;101329.38;5097458;27;45459;-60
2023/01/10 01:18:26;;;;;;;;;1.00;1.00;;;;;6.59;70.61;101321.66;5095698;27;45358;-61
2023/01/10 01:20:53;;;;;;;;;3.00;0.75;;;;;6.69;70.20;101343.41;5113528;27;45475;-62
2023/01/10 01:23:19;;;;;;;;;1.50;1.00;;;;;6.64;70.70;101329.44;5097729;27;45248;-61
2023/01/10 01:25:48;;;;;;;;;2.00;0.75;;;;;6.69;70.80;101343.41;5117525;27;45554;-61
2023/01/10 01:28:13;;;;;;;;;1.75;1.25;;;;;6.69;70.59;101340.75;5096739;27;45471;-61
2023/01/10 01:30:39;;;;;;;;;2.00;1.00;;;;;6.69;70.53;101338.13;5089868;27;45531;-62
2023/01/10 01:33:04;;;;;;;;;6.00;1.25;;;;;6.70;70.28;101346.00;5095705;27;45428;-62
2023/01/10 01:35:32;;;;;;;;;4.00;1.00;;;;;6.73;70.48;101360.91;5096402;27;46734;-60
2023/01/10 01:37:57;;;;;;;;;1.75;1.75;;;;;6.70;70.24;101355.72;5095340;27;45475;-61
2023/01/10 01:40:23;;;;;;;;;5.00;1.50;;;;;6.70;70.63;101363.66;5096928;27;45313;-61
2023/01/10 01:42:54;;;;;;;;;3.00;1.00;;;;;6.73;70.48;101371.47;5096451;27;45296;-60
2023/01/10 01:45:32;;;;;;;;;1.25;1.00;;;;;6.72;70.90;101369.75;5096820;27;45463;-61
2023/01/10 01:48:16;;;;;;;;;1.00;1.00;;;;;6.74;70.26;101368.78;5090818;27;45465;-60
2023/01/10 01:50:54;;;;;;;;;2.00;2.00;;;;;6.75;70.56;101370.53;5095078;27;45495;-61
2023/01/10 01:53:36;;;;;;;;;1.00;1.00;;;;;6.76;70.51;101360.81;5096220;27;45721;-61
2023/01/10 01:56:08;;;;;;;;;3.50;1.00;;;;;6.74;70.71;101355.56;5096534;27;45492;-61
2023/01/10 01:58:52;;;;;;;;;5.50;2.00;;;;;6.75;70.61;101357.31;5096336;27;46385;-64
2023/01/10 02:01:20;;;;;;;;;2.00;0.75;;;;;6.74;70.56;101352.06;5096763;27;45481;-61
2023/01/10 02:03:50;;;;;;;;;3.50;1.00;;;;;6.77;70.50;101363.44;5090531;27;45471;-62
2023/01/10 02:06:19;;;;;;;;;4.00;2.00;;;;;6.74;70.80;101365.28;5097055;27;45242;-62
2023/01/10 02:08:50;;;;;;;;;5.00;2.50;;;;;6.79;70.88;101376.63;5086024;27;45562;-61
2023/01/10 02:11:16;;;;;;;;;2.50;2.50;;;;;6.79;71.08;101381.91;5081392;27;45462;-62
2023/01/10 02:13:44;;;;;;;;;2.00;0.25;;;;;6.77;70.73;101395.16;5082436;27;45515;-63
2023/01/10 02:16:10;;;;;;;;;3.50;1.00;;;;;6.74;71.32;101397.00;5080614;27;45562;-62
2023/01/10 02:18:39;;;;;;;;;2.00;0.75;;;;;6.79;71.04;101401.28;5108503;27;45523;-61
2023/01/10 02:21:21;;;;;;;;;4.00;1.75;;;;;6.80;70.65;101407.44;5111450;27;45361;-61
2023/01/10 02:23:46;;;;;;;;;5.00;1.75;;;;;6.82;70.85;101408.25;5094526;27;45328;-62
2023/01/10 02:26:30;;;;;;;;;1.00;1.00;;;;;6.82;70.85;101408.25;5094755;27;45542;-61
2023/01/10 02:29:38;;;;;;;;;4.25;1.00;;;;;6.82;71.20;101412.66;5088996;27;46265;-62
2023/01/10 02:32:22;;;;;;;;;5.00;1.00;;;;;6.82;71.22;101413.53;5100144;27;45477;-61
2023/01/10 02:35:10;;;;;;;;;1.00;1.00;;;;;6.80;71.44;101415.34;5100898;27;45372;-62
2023/01/10 02:37:55;;;;;;;;;2.50;1.25;;;;;6.78;71.11;101417.19;5093896;27;45665;-61
2023/01/10 02:40:46;;;;;;;;;4.75;1.00;;;;;6.78;70.97;101423.34;5098467;27;48097;-62
2023/01/10 02:43:18;;;;;;;;;1.00;1.00;;;;;6.78;71.02;101427.75;5084254;27;45346;-61
2023/01/10 02:45:53;;;;;;;;;1.00;1.00;;;;;6.77;71.25;101418.06;5079542;27;45381;-60
2023/01/10 02:48:20;;;;;;;;;5.00;1.00;;;;;6.74;71.24;101431.38;5079479;27;45500;-61
2023/01/10 02:50:55;;;;;;;;;1.00;1.00;;;;;6.73;71.42;101421.72;5078891;28;45606;-63
2023/01/10 02:53:28;;;;;;;;;1.00;1.00;;;;;6.60;71.19;101422.94;5078970;27;45818;-60
2023/01/10 02:56:12;;;;;;;;;5.00;1.75;;;;;6.69;71.27;101449.16;5095807;27;45746;-60
2023/01/10 02:58:52;;;;;;;;;1.25;1.25;;;;;6.49;71.96;101423.22;5091855;27;45491;-62
2023/01/10 03:01:40;;;;;;;;;2.00;1.00;;;;;6.66;71.61;101452.75;5087689;27;46570;-61
2023/01/10 03:04:44;;;;;;;;;3.75;2.00;;;;;6.49;71.57;101428.50;5098922;27;45230;-61
2023/01/10 03:07:32;;;;;;;;;9.25;0.25;;;;;6.65;72.17;101442.22;5092351;27;45250;-62
2023/01/10 03:10:24;;;;;;;;;2.00;1.00;;;;;6.60;71.67;101434.38;5084251;27;45461;-62
2023/01/10 03:12:55;;;;;;;;;1.00;1.00;;;;;6.63;71.96;101434.28;5085330;27;45433;-62
2023/01/10 03:15:23;;;;;;;;;1.25;0.00;;;;;6.62;71.99;101429.06;5081552;27;45423;-62
2023/01/10 03:17:54;;;;;;;;;1.00;1.00;;;;;6.62;71.93;101431.69;5098890;27;45396;-60
2023/01/10 03:20:22;;;;;;;;;2.50;1.50;;;;;6.40;72.49;101395.28;5099600;27;45904;-61
2023/01/10 03:22:47;;;;;;;;;1.50;1.50;;;;;6.62;72.09;101437.84;5106858;27;45777;-62
2023/01/10 03:25:16;;;;;;;;;1.00;1.00;;;;;6.63;72.15;101436.06;5119598;27;45427;-61
2023/01/10 03:27:51;;;;;;;;;2.00;2.00;;;;;6.64;72.50;101445.72;5119951;27;45391;-61
2023/01/10 03:30:39;;;;;;;;;2.50;2.00;;;;;6.66;72.69;101433.38;5112823;27;45218;-60
2023/01/10 03:33:05;;;;;;;;;9.00;2.00;;;;;6.67;72.09;101443.91;5085131;27;45564;-61
2023/01/10 03:35:49;;;;;;;;;1.00;1.00;;;;;6.66;72.16;101458.03;5097429;27;45415;-59
2023/01/10 03:38:23;;;;;;;;;3.50;1.00;;;;;6.67;71.81;101456.25;5098763;27;45467;-62
2023/01/10 03:40:48;;;;;;;;;1.00;1.00;;;;;6.69;71.73;101459.72;5098984;27;45508;-60
2023/01/10 03:46:44;;;;;;;;;2.50;2.50;;;;;6.70;71.88;101457.03;5087650;27;45339;-60
2023/01/10 03:49:13;;;;;;;;;4.00;1.50;;;;;6.74;72.02;101457.81;5091455;27;45240;-61
2023/01/10 03:51:39;;;;;;;;;1.25;0.50;;;;;6.76;71.91;101463.91;5099605;27;45386;-61
2023/01/10 03:54:05;;;;;;;;;1.00;1.00;;;;;6.77;72.16;101457.72;5111085;27;45406;-66
2023/01/10 03:56:30;;;;;;;;;2.00;1.00;;;;;6.82;71.88;101463.78;5121129;27;45329;-61
2023/01/10 03:58:56;;;;;;;;;1.00;1.00;;;;;6.83;71.71;101470.78;5112006;27;45416;-59
2023/01/10 04:01:21;;;;;;;;;2.00;2.00;;;;;6.86;72.18;101472.47;5100262;27;45381;-65
2023/01/10 04:03:47;;;;;;;;;1.75;1.00;;;;;6.82;71.83;101465.56;5082130;27;47388;-62
2023/01/10 04:06:12;;;;;;;;;1.25;0.25;;;;;6.88;71.93;101471.53;5085893;27;45367;-61
2023/01/10 04:08:37;;;;;;;;;3.25;1.00;;;;;6.89;71.42;101470.63;5098391;27;45262;-63
2023/01/10 04:11:03;;;;;;;;;2.00;0.00;;;;;6.89;72.16;101472.38;5098216;27;45573;-61
2023/01/10 04:13:29;;;;;;;;;5.00;0.25;;;;;6.92;72.03;101477.63;5097712;27;46328;-66
2023/01/10 04:15:54;;;;;;;;;1.00;1.00;;;;;6.90;71.67;101460.91;5113962;27;45333;-64
2023/01/10 04:18:19;;;;;;;;;3.50;0.00;;;;;6.94;72.14;101468.72;5096978;27;45262;-61
2023/01/10 04:20:45;;;;;;;;;1.75;0.25;;;;;6.95;72.15;101475.75;5095271;27;45568;-61
2023/01/10 04:23:10;;;;;;;;;4.25;1.75;;;;;6.95;71.82;101467.81;5116637;27;46982;-62
2023/01/10 04:25:35;;;;;;;;;2.75;1.00;;;;;6.96;72.06;101472.19;5114072;27;45166;-62
2023/01/10 04:28:01;;;;;;;;;2.00;2.00;;;;;6.96;71.49;101469.56;5098212;27;45364;-61
2023/01/10 04:30:26;;;;;;;;;4.75;3.50;;;;;7.00;72.00;101465.03;5098239;27;45218;-63
2023/01/10 04:32:52;;;;;;;;;0.75;0.75;;;;;7.02;71.93;101474.66;5098165;27;45305;-63
2023/01/10 04:35:17;;;;;;;;;3.25;1.00;;;;;6.94;71.56;101454.66;5099167;27;45436;-62
2023/01/10 04:37:43;;;;;;;;;2.00;2.00;;;;;7.07;71.49;101483.34;5110006;27;45312;-62
2023/01/10 04:40:09;;;;;;;;;1.75;1.75;;;;;7.08;71.50;101497.44;5100861;27;45493;-61
2023/01/10 04:42:34;;;;;;;;;2.00;1.00;;;;;7.12;71.82;101492.94;5118769;27;45301;-62
2023/01/10 04:45:00;;;;;;;;;8.00;1.00;;;;;7.04;71.38;101478.16;5096515;27;45550;-63
2023/01/10 04:47:25;;;;;;;;;1.75;1.25;;;;;7.11;71.58;101494.72;5098300;27;45801;-63
2023/01/10 04:49:50;;;;;;;;;1.00;1.00;;;;;7.10;71.45;101492.97;5114005;27;45616;-62
2023/01/10 04:52:16;;;;;;;;;3.75;1.25;;;;;7.00;71.59;101488.84;5097560;27;45270;-63
2023/01/10 04:54:41;;;;;;;;;1.50;1.00;;;;;7.10;71.67;101493.84;5100501;27;45335;-63
2023/01/10 04:57:07;;;;;;;;;2.00;2.00;;;;;7.09;71.30;101480.66;5115032;27;45342;-64
2023/01/10 04:59:32;;;;;;;;;1.75;1.75;;;;;7.13;71.39;101486.72;5118948;27;45357;-62
2023/01/10 05:01:57;;;;;;;;;1.00;1.00;;;;;7.12;71.65;101485.00;5118021;27;45259;-61
2023/01/10 05:04:23;;;;;;;;;2.75;1.50;;;;;7.06;71.64;101471.03;5081448;27;45302;-63
2023/01/10 05:06:52;;;;;;;;;4.75;3.50;;;;;7.10;71.52;101485.91;5076797;27;45290;-62
2023/01/10 05:09:18;;;;;;;;;4.50;2.00;;;;;7.10;71.77;101482.41;5075875;28;45358;-63
2023/01/10 05:11:43;;;;;;;;;1.75;1.75;;;;;7.10;71.43;101477.97;5091753;27;45423;-61
2023/01/10 05:14:09;;;;;;;;;4.00;4.00;;;;;7.04;71.61;101483.44;5097423;27;45431;-62
2023/01/10 05:16:35;;;;;;;;;5.00;2.00;;;;;7.07;71.67;101479.84;5096333;27;45439;-63
2023/01/10 05:19:00;;;;;;;;;1.00;1.00;;;;;7.04;71.81;101482.59;5103957;27;45530;-62
2023/01/10 05:21:26;;;;;;;;;0.50;0.50;;;;;7.09;71.66;101473.59;5082763;27;47550;-61
2023/01/10 05:23:51;;;;;;;;;6.00;1.25;;;;;7.06;71.45;101470.19;5093602;27;45505;-62
2023/01/10 05:26:21;;;;;;;;;2.50;1.00;;;;;7.01;71.60;101454.41;5097266;27;45377;-63
2023/01/10 05:28:46;;;;;;;;;1.00;1.00;;;;;6.99;71.70;101450.09;5095969;27;45508;-61
2023/01/10 05:31:15;;;;;;;;;4.25;4.25;;;;;7.08;71.82;101471.88;5096978;27;46263;-62
2023/01/10 05:33:48;;;;;;;;;2.00;2.00;;;;;7.12;71.47;101474.41;5096973;27;45351;-61
2023/01/10 05:36:14;;;;;;;;;1.25;1.00;;;;;7.04;71.64;101461.44;5095936;27;45363;-62
2023/01/10 05:38:39;;;;;;;;;1.50;1.50;;;;;7.15;71.38;101471.69;5084363;27;45442;-63
2023/01/10 05:41:05;;;;;;;;;1.50;1.50;;;;;7.18;71.43;101468.97;5096997;27;45992;-63
2023/01/10 05:43:30;;;;;;;;;6.00;2.50;;;;;7.17;71.42;101472.53;5096798;27;45443;-62
2023/01/10 05:45:56;;;;;;;;;1.00;1.00;;;;;7.16;71.57;101473.41;5123784;27;45361;-63
2023/01/10 05:48:21;;;;;;;;;4.75;3.50;;;;;7.19;71.79;101476.88;5090789;27;45372;-63
2023/01/10 05:50:48;;;;;;;;;1.25;1.00;;;;;7.21;71.76;101469.75;5095451;27;46241;-64
2023/01/10 05:53:14;;;;;;;;;5.00;3.50;;;;;7.26;71.45;101470.47;5096031;27;45452;-62
2023/01/10 05:55:39;;;;;;;;;7.00;3.00;;;;;7.25;71.50;101462.59;5106498;27;45630;-62
2023/01/10 05:58:05;;;;;;;;;5.00;1.00;;;;;7.27;71.50;101466.06;5118429;27;45171;-61
2023/01/10 06:00:30;;;;;;;;;3.50;3.50;;;;;7.25;71.77;101466.09;5111944;27;45390;-63
2023/01/10 06:02:56;;;;;;;;;4.25;1.75;;;;;7.27;71.77;101474.84;5078598;27;45434;-62
2023/01/10 06:05:23;;;;;;;;;1.75;0.75;;;;;7.24;71.31;101464.38;5077362;27;45157;-63
2023/01/10 06:07:49;;;;;;;;;3.50;1.00;;;;;7.24;71.60;101468.78;5108632;27;45567;-63
2023/01/10 06:10:16;;;;;;;;;2.25;1.75;;;;;7.09;71.82;101444.50;5116212;27;47905;-62
2023/01/10 06:12:41;;;;;;;;;4.00;2.00;;;;;7.24;72.05;101466.13;5117612;27;45500;-63
2023/01/10 06:15:08;;;;;;;;;7.25;2.25;;;;;7.23;71.91;101467.91;5118017;27;45471;-62
2023/01/10 06:17:33;;;;;;;;;1.00;0.00;;;;;7.15;71.61;101463.75;5100994;27;45624;-60
2023/01/10 06:19:59;;;;;;;;;5.00;2.75;;;;;7.19;71.46;101470.72;5077779;27;49708;-63
2023/01/10 06:22:25;;;;;;;;;5.00;1.00;;;;;7.25;71.88;101470.53;5084305;27;45381;-61
2023/01/10 06:24:51;;;;;;;;;6.25;1.75;;;;;7.25;71.72;101463.44;5096237;27;45312;-61
2023/01/10 06:27:16;;;;;;;;;6.25;2.25;;;;;7.22;71.97;101460.91;5095873;27;45537;-60
2023/01/10 06:29:41;;;;;;;;;1.00;1.00;;;;;7.23;71.84;101461.75;5075219;27;46261;-62
2023/01/10 06:32:07;;;;;;;;;2.50;2.50;;;;;7.23;71.76;101462.63;5082622;27;45566;-64
2023/01/10 06:34:32;;;;;;;;;2.00;2.00;;;;;7.21;71.92;101458.31;5080697;27;45323;-62
2023/01/10 06:36:58;;;;;;;;;4.50;2.50;;;;;7.21;71.97;101468.88;5076146;27;45180;-62
2023/01/10 06:39:23;;;;;;;;;2.75;2.00;;;;;7.23;71.88;101461.75;5088616;27;46869;-61
2023/01/10 06:41:48;;;;;;;;;5.75;2.75;;;;;7.24;72.08;101469.66;5080359;27;45528;-64
2023/01/10 06:44:14;;;;;;;;;3.50;1.25;;;;;7.24;72.58;101469.66;5074469;27;45362;-60
2023/01/10 06:46:39;;;;;;;;;1.25;1.00;;;;;7.24;71.71;101458.19;5076785;27;45353;-61
2023/01/10 06:49:05;;;;;;;;;2.00;2.00;;;;;7.30;72.02;101473.91;5082799;27;46090;-64
2023/01/10 06:51:30;;;;;;;;;2.00;0.75;;;;;7.25;72.35;101481.09;5088744;27;45525;-64
2023/01/10 06:53:56;;;;;;;;;4.00;1.00;;;;;7.28;71.58;101481.88;5079458;27;45302;-65
2023/01/10 06:56:21;;;;;;;;;4.50;4.50;;;;;7.23;71.98;101477.63;5079563;27;45443;-62
2023/01/10 06:58:48;;;;;;;;;2.00;2.00;;;;;7.17;71.74;101459.31;5078104;28;46395;-64
2023/01/10 07:01:17;;;;;;;;;4.75;2.00;;;;;7.26;71.90;101491.63;5079133;27;45350;-61
2023/01/10 07:03:42;;;;;;;;;4.75;4.75;;;;;7.19;72.33;101470.72;5079083;27;45250;-62
2023/01/10 07:06:11;;;;;;;;;2.75;2.00;;;;;7.29;71.30;101483.63;5086912;27;45473;-66
2023/01/10 07:08:39;;;;;;;;;5.50;4.75;;;;;7.29;72.32;101486.28;5099335;27;46599;-67
2023/01/10 07:11:05;;;;;;;;;6.50;4.25;;;;;7.30;72.37;101485.38;5089979;27;45421;-67
2023/01/10 07:13:30;;;;;;;;;3.75;3.75;;;;;7.32;72.03;101487.97;5079122;27;45402;-66
2023/01/10 07:16:26;;;;;;;;;2.50;2.50;;;;;7.31;72.13;101478.31;5078859;27;45547;-67
2023/01/10 07:18:51;;;;;;;;;4.00;4.00;;;;;7.31;71.93;101476.53;5073625;27;45477;-64
2023/01/10 07:21:18;;;;;;;;;5.75;4.00;;;;;7.30;72.25;101463.34;5087698;27;45712;-67
2023/01/10 07:23:48;;;;;;;;;1.75;1.75;;;;;7.25;71.88;101455.50;5096099;27;45429;-65
2023/01/10 07:26:16;;;;;;;;;1.00;1.00;;;;;7.35;71.90;101477.28;5098393;27;45318;-64
2023/01/10 07:28:42;;;;;;;;;6.00;4.25;;;;;7.32;72.56;101472.09;5098396;27;45476;-65
2023/01/10 07:31:10;;;;;;;;;6.00;2.00;;;;;7.28;72.13;101459.84;5098644;27;45712;-69
2023/01/10 07:33:35;;;;;;;;;6.75;2.00;;;;;7.26;72.05;101473.13;5098985;27;45324;-69
2023/01/10 07:36:01;;;;;;;;;2.25;2.25;;;;;7.30;72.05;101465.97;5106075;27;45650;-65
2023/01/10 07:38:27;;;;;;;;;10.25;4.00;;;;;7.30;72.37;101460.69;5102961;27;46850;-67
2023/01/10 07:40:53;;;;;;;;;5.00;1.00;;;;;7.30;72.12;101456.28;5088005;27;45510;-69
2023/01/10 07:43:18;;;;;;;;;7.75;6.00;;;;;7.27;72.54;101450.16;5078183;28;45460;-64
2023/01/10 07:45:44;;;;;;;;;2.00;2.00;;;;;7.24;72.49;101455.56;5095664;27;45445;-66
2023/01/10 07:48:09;;;;;;;;;4.75;3.00;;;;;7.31;72.67;101462.44;5099055;27;45392;-67
2023/01/10 07:50:36;;;;;;;;;2.50;2.50;;;;;7.28;72.30;101462.50;5098679;27;45303;-67
2023/01/10 07:53:04;;;;;;;;;5.00;5.00;;;;;7.23;72.73;101448.53;5097283;27;45180;-67
2023/01/10 07:55:29;;;;;;;;;7.00;2.50;;;;;7.29;73.04;101459.81;5098588;27;45454;-67
2023/01/10 07:57:55;;;;;;;;;4.00;3.75;;;;;7.33;72.41;101457.94;5086603;27;45463;-64
2023/01/10 08:00:21;;;;;;;;;4.00;4.00;;;;;7.30;72.27;101460.69;5078563;27;45479;-69
2023/01/10 08:02:46;;;;;;;;;2.75;2.00;;;;;7.33;72.63;101465.88;5081374;27;45742;-69
2023/01/10 08:05:13;;;;;;;;;2.25;0.50;;;;;7.22;72.93;101455.59;5119647;27;45560;-70
2023/01/10 08:07:38;;;;;;;;;7.00;5.75;;;;;7.31;73.08;101465.94;5118734;27;46329;-71
2023/01/10 08:10:05;;;;;;;;;5.75;5.00;;;;;7.30;72.65;101458.91;5110867;27;45415;-69
2023/01/10 08:12:31;;;;;;;;;5.00;5.00;;;;;7.28;73.19;101462.50;5077845;27;45735;-68
2023/01/10 08:14:57;;;;;;;;;4.25;4.25;;;;;7.27;72.78;101452.81;5091561;27;45538;-67
2023/01/10 08:17:22;;;;;;;;;3.25;2.50;;;;;7.36;72.77;101468.44;5093962;27;45536;-69
2023/01/10 08:19:48;;;;;;;;;4.00;4.00;;;;;7.41;72.60;101463.88;5087654;27;45446;-68
2023/01/10 08:22:13;;;;;;;;;8.75;5.25;;;;;7.42;72.75;101470.91;5096540;27;45808;-68
2023/01/10 08:24:39;;;;;;;;;5.25;3.25;;;;;7.37;72.50;101454.28;5086983;27;45606;-72
2023/01/10 08:27:04;;;;;;;;;6.50;1.75;;;;;7.38;72.53;101461.31;5105468;27;45456;-72
2023/01/10 08:29:30;;;;;;;;;10.00;5.50;;;;;7.45;72.45;101462.88;5077530;27;45439;-69
2023/01/10 08:31:55;;;;;;;;;6.00;5.00;;;;;7.35;72.79;101440.25;5089489;27;45431;-73
2023/01/10 08:34:21;;;;;;;;;12.00;8.25;;;;;7.43;72.90;101456.78;5089175;27;45505;-66
2023/01/10 08:36:53;;;;;;;;;5.00;5.00;;;;;7.46;72.30;101448.75;5086049;27;45941;-71
2023/01/10 08:39:25;;;;;;;;;9.00;5.50;;;;;7.36;72.28;101436.69;5087711;27;45409;-68
2023/01/10 08:41:51;;;;;;;;;4.75;2.25;;;;;7.50;72.27;101453.03;5108539;27;45245;-67
2023/01/10 08:44:16;;;;;;;;;9.25;5.25;;;;;7.50;72.44;101455.66;5077595;27;45502;-69
2023/01/10 08:46:42;;;;;;;;;5.75;5.75;;;;;7.51;72.35;101457.41;5088220;27;47664;-69
2023/01/10 08:49:08;;;;;;;;;8.25;6.75;;;;;7.51;72.34;101452.09;5094301;27;45487;-63
2023/01/10 08:51:33;;;;;;;;;6.50;5.25;;;;;7.47;72.31;101447.81;5095669;27;45487;-62
2023/01/10 08:53:58;;;;;;;;;6.00;6.00;;;;;7.51;72.25;101468.00;5084816;27;45449;-64
2023/01/10 08:56:24;;;;;;;;;7.00;5.00;;;;;7.52;72.22;101477.66;5086447;27;47356;-62
2023/01/10 08:58:50;;;;;;;;;11.75;5.00;;;;;7.46;72.07;101469.91;5094912;27;45704;-64
2023/01/10 09:01:15;;;;;;;;;9.75;6.00;;;;;7.49;72.45;101471.59;5098162;27;45376;-63
2023/01/10 09:03:40;;;;;;;;;8.00;8.00;;;;;7.47;72.58;101476.06;5083593;27;45475;-65
2023/01/10 09:06:07;;;;;;;;;11.00;8.25;;;;;7.45;72.86;101477.91;5077604;27;45798;-66
2023/01/10 09:08:33;;;;;;;;;6.50;6.50;;;;;7.40;73.45;101470.06;5093167;27;45398;-61
2023/01/10 09:11:00;;;;;;;;;12.75;10.00;;;;;7.39;73.93;101463.91;5085165;27;45483;-63
2023/01/10 09:13:27;;;;;;;;;13.25;8.75;;;;;7.43;73.70;101466.50;5088993;27;45479;-63
2023/01/10 09:15:53;;;;;;;;;5.00;5.00;;;;;7.44;73.79;101466.44;5093108;27;46316;-63
2023/01/10 09:18:18;;;;;;;;;10.50;10.50;;;;;7.46;74.10;101461.09;5092321;27;45257;-60
2023/01/10 09:20:45;;;;;;;;;8.75;5.50;;;;;7.44;74.14;101457.66;5089858;27;45518;-62
2023/01/10 09:23:17;;;;;;;;;8.00;6.25;;;;;7.48;74.43;101469.88;5113077;27;45597;-62
2023/01/10 09:25:44;;;;;;;;;9.75;7.00;;;;;7.43;74.65;101447.97;5097018;27;45234;-65
2023/01/10 09:28:10;;;;;;;;;9.00;9.00;;;;;7.50;74.47;101460.97;5093759;27;45391;-62
2023/01/10 09:30:36;;;;;;;;;9.75;8.75;;;;;7.52;75.53;101450.31;5076065;27;45599;-62
2023/01/10 09:33:02;;;;;;;;;9.25;7.25;;;;;7.52;75.32;101451.19;5077569;27;45353;-62
2023/01/10 09:35:29;;;;;;;;;13.00;7.25;;;;;7.50;76.68;101442.44;5099710;27;46262;-62
2023/01/10 09:37:56;;;;;;;;;11.50;8.00;;;;;7.52;76.25;101442.38;5098229;27;45563;-63
2023/01/10 09:40:50;;;;;;;;;8.50;7.00;;;;;7.47;76.27;101445.19;5097016;27;45448;-61
2023/01/10 09:43:28;;;;;;;;;10.25;8.75;;;;;7.37;76.51;101441.06;5096853;27;45302;-64
2023/01/10 09:46:04;;;;;;;;;10.75;8.25;;;;;7.36;77.68;101436.69;5096608;27;45237;-62
2023/01/10 09:48:55;;;;;;;;;13.25;7.00;;;;;7.30;77.76;101428.94;5078070;27;45369;-63
2023/01/10 09:51:31;;;;;;;;;9.75;9.75;;;;;7.32;77.91;101432.41;5074877;27;45289;-64
2023/01/10 09:54:00;;;;;;;;;9.00;9.00;;;;;7.28;78.48;101422.81;5077318;27;45339;-63
2023/01/10 09:56:28;;;;;;;;;13.75;8.25;;;;;7.34;78.37;101433.22;5076291;27;45413;-66
2023/01/10 09:58:55;;;;;;;;;10.25;8.25;;;;;7.32;78.68;101425.34;5075901;28;45470;-62
2023/01/10 10:01:25;;;;;;;;;9.50;7.50;;;;;7.30;78.53;101428.94;5076751;27;45321;-61
2023/01/10 10:04:13;;;;;;;;;7.25;6.00;;;;;7.34;78.95;101434.09;5076524;27;45374;-63
2023/01/10 10:06:39;;;;;;;;;6.75;6.75;;;;;7.34;78.86;101433.22;5075973;27;45329;-63
2023/01/10 10:09:04;;;;;;;;;8.50;8.50;;;;;7.31;78.77;101438.59;5076088;27;45298;-63
2023/01/10 10:11:41;;;;;;;;;9.00;6.75;;;;;7.23;78.93;101430.00;5076232;28;45282;-59
2023/01/10 10:14:17;;;;;;;;;9.00;9.00;;;;;7.31;79.04;101443.91;5076442;27;45437;-62
2023/01/10 10:17:01;;;;;;;;;16.00;9.00;;;;;7.28;79.30;101441.31;5076385;27;46313;-64
2023/01/10 10:19:32;;;;;;;;;9.75;9.50;;;;;7.29;79.51;101438.66;5086580;27;45380;-67
2023/01/10 10:22:27;;;;;;;;;9.00;8.00;;;;;7.29;79.64;101443.06;5095847;27;45463;-64
2023/01/10 10:25:13;;;;;;;;;8.50;8.50;;;;;7.29;79.28;101443.06;5112555;27;45377;-63
2023/01/10 10:27:54;;;;;;;;;15.25;6.25;;;;;7.32;80.02;101435.06;5096551;27;47551;-64
2023/01/10 10:30:30;;;;;;;;;11.00;10.50;;;;;7.21;80.28;101400.09;5099471;27;45374;-61
2023/01/10 10:33:04;;;;;;;;;12.25;6.00;;;;;7.35;80.09;101409.34;5099842;27;45383;-63
2023/01/10 10:35:36;;;;;;;;;15.50;11.50;;;;;7.38;79.96;101408.41;5100012;27;45435;-61
2023/01/10 10:38:09;;;;;;;;;10.50;10.50;;;;;7.39;80.22;101405.69;5107864;27;45385;-63
2023/01/10 10:40:39;;;;;;;;;10.75;9.00;;;;;7.41;78.86;101403.00;5082355;27;45357;-63
2023/01/10 10:43:20;;;;;;;;;6.75;6.25;;;;;7.35;79.93;101382.03;5078188;27;45516;-61
2023/01/10 10:45:56;;;;;;;;;13.00;9.25;;;;;7.43;81.31;101369.44;5079280;27;45334;-62
2023/01/10 10:48:29;;;;;;;;;13.00;8.00;;;;;7.49;80.60;101363.09;5079606;27;46438;-61
2023/01/10 10:51:01;;;;;;;;;11.75;9.25;;;;;7.52;80.62;101363.84;5095048;27;45256;-62
2023/01/10 10:53:27;;;;;;;;;11.00;5.00;;;;;7.50;80.32;101355.09;5079439;27;45423;-65
2023/01/10 10:55:53;;;;;;;;;9.25;5.75;;;;;7.51;80.43;101346.22;5079479;27;45365;-62
2023/01/10 10:58:18;;;;;;;;;4.00;4.00;;;;;7.55;79.83;101347.91;5078662;27;45409;-63
2023/01/10 11:00:45;;;;;;;;;5.75;5.75;;;;;7.55;80.88;101339.06;5078805;27;45368;-64
2023/01/10 11:03:41;;;;;;;;;5.25;5.25;;;;;7.57;80.00;101340.75;5079166;27;45870;-65
2023/01/10 11:06:08;;;;;;;;;4.75;2.00;;;;;7.57;78.92;101338.13;5095969;27;45361;-63
2023/01/10 11:08:42;;;;;;;;;7.00;7.00;;;;;7.61;79.70;101336.22;5080823;27;45429;-62
2023/01/10 11:11:35;;;;;;;;;9.75;6.00;;;;;7.66;80.34;101334.28;5090347;27;45605;-62
2023/01/10 11:14:03;;;;;;;;;8.00;5.25;;;;;7.65;79.43;101319.31;5079054;27;45383;-62
2023/01/10 11:16:40;;;;;;;;;8.00;5.50;;;;;7.71;80.97;101315.63;5094967;27;45636;-62
2023/01/10 11:19:16;;;;;;;;;6.50;5.25;;;;;7.73;80.21;101313.78;5085253;27;46654;-61
2023/01/10 11:21:47;;;;;;;;;13.75;6.00;;;;;7.73;79.92;101305.84;5099853;27;45480;-61
2023/01/10 11:24:27;;;;;;;;;6.75;5.00;;;;;7.68;78.90;101284.81;5099912;27;45419;-66
2023/01/10 11:26:53;;;;;;;;;8.00;4.50;;;;;7.73;80.05;101282.03;5095945;27;45487;-63
2023/01/10 11:29:39;;;;;;;;;8.75;6.00;;;;;7.74;80.29;101289.03;5098799;27;45415;-62
2023/01/10 11:32:14;;;;;;;;;9.50;7.25;;;;;7.74;80.86;101270.50;5077413;27;45464;-66
2023/01/10 11:34:41;;;;;;;;;6.00;6.00;;;;;7.71;80.07;101250.31;5080337;27;45420;-63
2023/01/10 11:37:16;;;;;;;;;6.25;4.75;;;;;7.87;80.05;101255.94;5079328;27;45604;-65
2023/01/10 11:39:41;;;;;;;;;6.00;6.00;;;;;7.90;80.48;101247.88;5093049;27;45440;-66
2023/01/10 11:42:28;;;;;;;;;5.25;5.25;;;;;7.92;80.98;101249.56;5098688;27;45234;-66
2023/01/10 11:44:55;;;;;;;;;9.00;6.25;;;;;7.95;81.22;101246.81;5089530;27;45433;-66
2023/01/10 11:47:21;;;;;;;;;4.50;4.50;;;;;8.00;80.65;101251.94;5078512;28;45298;-65
2023/01/10 11:49:48;;;;;;;;;7.25;6.00;;;;;7.93;80.35;101231.88;5076312;27;46533;-69
2023/01/10 11:52:28;;;;;;;;;7.75;4.50;;;;;8.03;80.58;101243.88;5114773;27;45874;-66